sensor_id;sensor_type;location;lat;lon;timestamp;P1;durP1;ratioP1;P2;durP2;ratioP2
21848;SDS011;11089;49.852;19.700;2023-03-01T00:02:25;30.70;;;12.57;;
21848;SDS011;11089;49.852;19.700;2023-03-01T00:05:26;32.88;;;13.35;;
21848;SDS011;11089;49.852;19.700;2023-03-01T00:08:27;26.25;;;12.52;;
21848;SDS011;11089;49.852;19.700;2023-03-01T00:11:29;26.05;;;11.88;;
21848;SDS011;11089;49.852;19.700;2023-03-01T00:14:31;31.33;;;11.98;;
21848;SDS011;11089;49.852;19.700;2023-03-01T00:17:32;27.40;;;12.15;;
21848;SDS011;11089;49.852;19.700;2023-03-01T00:20:33;30.58;;;12.38;;
21848;SDS011;11089;49.852;19.700;2023-03-01T00:23:34;28.48;;;11.65;;
21848;SDS011;11089;49.852;19.700;2023-03-01T00:26:36;24.42;;;11.43;;
21848;SDS011;11089;49.852;19.700;2023-03-01T00:29:38;29.13;;;11.52;;
21848;SDS011;11089;49.852;19.700;2023-03-01T00:32:38;30.33;;;11.48;;
21848;SDS011;11089;49.852;19.700;2023-03-01T00:35:39;26.02;;;12.18;;
21848;SDS011;11089;49.852;19.700;2023-03-01T00:38:42;25.40;;;10.93;;
21848;SDS011;11089;49.852;19.700;2023-03-01T00:41:44;29.27;;;11.65;;
21848;SDS011;11089;49.852;19.700;2023-03-01T00:44:45;26.98;;;11.13;;
21848;SDS011;11089;49.852;19.700;2023-03-01T00:47:46;29.00;;;11.20;;
21848;SDS011;11089;49.852;19.700;2023-03-01T00:50:48;26.60;;;10.95;;
21848;SDS011;11089;49.852;19.700;2023-03-01T00:53:55;28.58;;;11.88;;
21848;SDS011;11089;49.852;19.700;2023-03-01T00:56:58;27.67;;;12.40;;
21848;SDS011;11089;49.852;19.700;2023-03-01T00:59:59;33.67;;;12.05;;
21848;SDS011;11089;49.852;19.700;2023-03-01T01:03:00;29.10;;;11.38;;
21848;SDS011;11089;49.852;19.700;2023-03-01T01:06:01;28.17;;;11.52;;
21848;SDS011;11089;49.852;19.700;2023-03-01T01:09:10;23.88;;;11.20;;
21848;SDS011;11089;49.852;19.700;2023-03-01T01:12:17;32.70;;;12.95;;
21848;SDS011;11089;49.852;19.700;2023-03-01T01:15:18;34.42;;;13.85;;
21848;SDS011;11089;49.852;19.700;2023-03-01T01:18:19;30.88;;;13.10;;
21848;SDS011;11089;49.852;19.700;2023-03-01T01:21:20;34.10;;;13.85;;
21848;SDS011;11089;49.852;19.700;2023-03-01T01:24:23;39.35;;;15.73;;
21848;SDS011;11089;49.852;19.700;2023-03-01T01:27:23;42.38;;;15.95;;
21848;SDS011;11089;49.852;19.700;2023-03-01T01:30:24;37.33;;;15.25;;
21848;SDS011;11089;49.852;19.700;2023-03-01T01:33:26;46.42;;;16.17;;
21848;SDS011;11089;49.852;19.700;2023-03-01T01:36:27;40.03;;;16.40;;
21848;SDS011;11089;49.852;19.700;2023-03-01T01:39:28;46.05;;;17.63;;
21848;SDS011;11089;49.852;19.700;2023-03-01T01:42:29;47.22;;;17.55;;
21848;SDS011;11089;49.852;19.700;2023-03-01T01:45:32;49.45;;;19.35;;
21848;SDS011;11089;49.852;19.700;2023-03-01T01:48:44;52.72;;;19.27;;
21848;SDS011;11089;49.852;19.700;2023-03-01T01:51:49;46.88;;;18.35;;
21848;SDS011;11089;49.852;19.700;2023-03-01T01:58:01;55.17;;;20.52;;
21848;SDS011;11089;49.852;19.700;2023-03-01T02:01:04;52.95;;;21.55;;
21848;SDS011;11089;49.852;19.700;2023-03-01T02:04:06;51.47;;;19.85;;
21848;SDS011;11089;49.852;19.700;2023-03-01T02:07:10;50.67;;;20.27;;
21848;SDS011;11089;49.852;19.700;2023-03-01T02:10:16;54.33;;;20.77;;
21848;SDS011;11089;49.852;19.700;2023-03-01T02:13:17;56.70;;;20.55;;
21848;SDS011;11089;49.852;19.700;2023-03-01T02:16:18;53.63;;;20.70;;
21848;SDS011;11089;49.852;19.700;2023-03-01T02:19:24;51.35;;;20.13;;
21848;SDS011;11089;49.852;19.700;2023-03-01T02:22:37;50.15;;;20.80;;
21848;SDS011;11089;49.852;19.700;2023-03-01T02:25:40;49.83;;;20.40;;
21848;SDS011;11089;49.852;19.700;2023-03-01T02:29:07;48.65;;;19.50;;
21848;SDS011;11089;49.852;19.700;2023-03-01T02:32:08;52.35;;;19.70;;
21848;SDS011;11089;49.852;19.700;2023-03-01T02:35:13;46.25;;;18.70;;
21848;SDS011;11089;49.852;19.700;2023-03-01T02:38:16;51.53;;;20.17;;
21848;SDS011;11089;49.852;19.700;2023-03-01T02:41:17;47.58;;;19.10;;
21848;SDS011;11089;49.852;19.700;2023-03-01T02:44:20;49.40;;;18.42;;
21848;SDS011;11089;49.852;19.700;2023-03-01T02:47:21;48.25;;;18.88;;
21848;SDS011;11089;49.852;19.700;2023-03-01T02:56:44;47.88;;;18.55;;
21848;SDS011;11089;49.852;19.700;2023-03-01T02:59:49;43.80;;;17.67;;
21848;SDS011;11089;49.852;19.700;2023-03-01T03:02:52;43.45;;;16.73;;
21848;SDS011;11089;49.852;19.700;2023-03-01T03:05:54;39.63;;;16.52;;
21848;SDS011;11089;49.852;19.700;2023-03-01T03:08:54;38.55;;;15.60;;
21848;SDS011;11089;49.852;19.700;2023-03-01T03:11:55;37.70;;;15.77;;
21848;SDS011;11089;49.852;19.700;2023-03-01T03:14:56;34.88;;;13.73;;
21848;SDS011;11089;49.852;19.700;2023-03-01T03:17:58;37.08;;;14.35;;
21848;SDS011;11089;49.852;19.700;2023-03-01T03:20:59;35.42;;;13.93;;
21848;SDS011;11089;49.852;19.700;2023-03-01T03:24:00;36.13;;;13.82;;
21848;SDS011;11089;49.852;19.700;2023-03-01T03:27:02;31.33;;;13.07;;
21848;SDS011;11089;49.852;19.700;2023-03-01T03:30:07;35.05;;;15.63;;
21848;SDS011;11089;49.852;19.700;2023-03-01T03:33:10;32.85;;;14.85;;
21848;SDS011;11089;49.852;19.700;2023-03-01T03:36:19;29.15;;;13.60;;
21848;SDS011;11089;49.852;19.700;2023-03-01T03:39:23;33.15;;;12.75;;
21848;SDS011;11089;49.852;19.700;2023-03-01T03:42:24;35.40;;;12.88;;
21848;SDS011;11089;49.852;19.700;2023-03-01T03:45:24;35.60;;;14.32;;
21848;SDS011;11089;49.852;19.700;2023-03-01T03:48:26;35.25;;;13.90;;
21848;SDS011;11089;49.852;19.700;2023-03-01T03:51:27;35.90;;;14.93;;
21848;SDS011;11089;49.852;19.700;2023-03-01T03:54:28;41.13;;;15.98;;
21848;SDS011;11089;49.852;19.700;2023-03-01T03:57:29;35.78;;;14.57;;
21848;SDS011;11089;49.852;19.700;2023-03-01T04:00:30;34.75;;;14.27;;
21848;SDS011;11089;49.852;19.700;2023-03-01T04:03:31;36.22;;;14.40;;
21848;SDS011;11089;49.852;19.700;2023-03-01T04:06:35;43.05;;;16.88;;
21848;SDS011;11089;49.852;19.700;2023-03-01T04:09:36;41.70;;;17.67;;
21848;SDS011;11089;49.852;19.700;2023-03-01T04:12:37;46.00;;;18.60;;
21848;SDS011;11089;49.852;19.700;2023-03-01T04:15:38;46.42;;;18.27;;
21848;SDS011;11089;49.852;19.700;2023-03-01T04:18:39;49.40;;;18.60;;
21848;SDS011;11089;49.852;19.700;2023-03-01T04:21:40;44.15;;;18.10;;
21848;SDS011;11089;49.852;19.700;2023-03-01T04:24:41;40.08;;;17.45;;
21848;SDS011;11089;49.852;19.700;2023-03-01T04:27:42;36.55;;;15.52;;
21848;SDS011;11089;49.852;19.700;2023-03-01T04:30:43;38.35;;;16.42;;
21848;SDS011;11089;49.852;19.700;2023-03-01T04:33:54;37.22;;;15.10;;
21848;SDS011;11089;49.852;19.700;2023-03-01T04:36:56;38.45;;;15.15;;
21848;SDS011;11089;49.852;19.700;2023-03-01T04:39:57;34.78;;;15.43;;
21848;SDS011;11089;49.852;19.700;2023-03-01T04:42:58;35.53;;;15.07;;
21848;SDS011;11089;49.852;19.700;2023-03-01T04:46:03;37.95;;;16.30;;
21848;SDS011;11089;49.852;19.700;2023-03-01T04:49:06;34.00;;;15.20;;
21848;SDS011;11089;49.852;19.700;2023-03-01T04:52:07;40.42;;;15.90;;
21848;SDS011;11089;49.852;19.700;2023-03-01T04:55:09;40.60;;;15.98;;
21848;SDS011;11089;49.852;19.700;2023-03-01T04:58:10;41.22;;;16.13;;
21848;SDS011;11089;49.852;19.700;2023-03-01T05:01:12;42.47;;;16.65;;
21848;SDS011;11089;49.852;19.700;2023-03-01T05:04:16;39.60;;;16.08;;
21848;SDS011;11089;49.852;19.700;2023-03-01T05:07:17;39.42;;;15.63;;
21848;SDS011;11089;49.852;19.700;2023-03-01T05:10:19;37.17;;;16.38;;
21848;SDS011;11089;49.852;19.700;2023-03-01T05:13:21;49.25;;;16.55;;
21848;SDS011;11089;49.852;19.700;2023-03-01T05:16:22;45.95;;;18.27;;
21848;SDS011;11089;49.852;19.700;2023-03-01T05:19:23;56.70;;;21.48;;
21848;SDS011;11089;49.852;19.700;2023-03-01T05:22:23;57.67;;;21.83;;
21848;SDS011;11089;49.852;19.700;2023-03-01T05:25:25;61.55;;;24.23;;
21848;SDS011;11089;49.852;19.700;2023-03-01T05:28:26;65.53;;;25.02;;
21848;SDS011;11089;49.852;19.700;2023-03-01T05:31:28;61.88;;;25.85;;
21848;SDS011;11089;49.852;19.700;2023-03-01T05:34:31;62.70;;;24.63;;
21848;SDS011;11089;49.852;19.700;2023-03-01T05:37:35;62.80;;;25.17;;
21848;SDS011;11089;49.852;19.700;2023-03-01T05:40:36;59.00;;;22.83;;
21848;SDS011;11089;49.852;19.700;2023-03-01T05:43:37;50.50;;;20.90;;
21848;SDS011;11089;49.852;19.700;2023-03-01T05:46:39;52.90;;;21.70;;
21848;SDS011;11089;49.852;19.700;2023-03-01T05:49:40;56.97;;;23.08;;
21848;SDS011;11089;49.852;19.700;2023-03-01T05:52:40;55.80;;;23.02;;
21848;SDS011;11089;49.852;19.700;2023-03-01T05:55:41;49.58;;;20.45;;
21848;SDS011;11089;49.852;19.700;2023-03-01T05:58:43;52.20;;;21.35;;
21848;SDS011;11089;49.852;19.700;2023-03-01T06:01:44;57.47;;;22.85;;
21848;SDS011;11089;49.852;19.700;2023-03-01T06:04:45;63.75;;;24.38;;
21848;SDS011;11089;49.852;19.700;2023-03-01T06:07:46;66.47;;;25.83;;
21848;SDS011;11089;49.852;19.700;2023-03-01T06:10:47;67.28;;;25.85;;
21848;SDS011;11089;49.852;19.700;2023-03-01T06:13:48;77.68;;;28.27;;
21848;SDS011;11089;49.852;19.700;2023-03-01T06:16:49;66.28;;;27.48;;
21848;SDS011;11089;49.852;19.700;2023-03-01T06:19:50;72.57;;;28.15;;
21848;SDS011;11089;49.852;19.700;2023-03-01T06:22:51;68.57;;;26.20;;
21848;SDS011;11089;49.852;19.700;2023-03-01T06:25:52;67.78;;;25.52;;
21848;SDS011;11089;49.852;19.700;2023-03-01T06:28:53;62.33;;;25.98;;
21848;SDS011;11089;49.852;19.700;2023-03-01T06:31:54;65.43;;;25.88;;
21848;SDS011;11089;49.852;19.700;2023-03-01T06:34:55;64.80;;;24.95;;
21848;SDS011;11089;49.852;19.700;2023-03-01T06:37:56;66.18;;;25.05;;
21848;SDS011;11089;49.852;19.700;2023-03-01T06:40:59;63.03;;;24.05;;
21848;SDS011;11089;49.852;19.700;2023-03-01T06:44:01;61.85;;;23.92;;
21848;SDS011;11089;49.852;19.700;2023-03-01T06:47:03;71.68;;;26.20;;
21848;SDS011;11089;49.852;19.700;2023-03-01T06:50:04;68.25;;;26.10;;
21848;SDS011;11089;49.852;19.700;2023-03-01T06:53:05;63.50;;;26.48;;
21848;SDS011;11089;49.852;19.700;2023-03-01T06:56:06;68.72;;;25.13;;
21848;SDS011;11089;49.852;19.700;2023-03-01T06:59:07;52.03;;;21.95;;
21848;SDS011;11089;49.852;19.700;2023-03-01T07:02:11;60.65;;;24.48;;
21848;SDS011;11089;49.852;19.700;2023-03-01T07:05:13;60.35;;;22.92;;
21848;SDS011;11089;49.852;19.700;2023-03-01T07:08:14;53.38;;;21.65;;
21848;SDS011;11089;49.852;19.700;2023-03-01T07:11:15;56.17;;;21.65;;
21848;SDS011;11089;49.852;19.700;2023-03-01T07:14:16;58.45;;;24.05;;
21848;SDS011;11089;49.852;19.700;2023-03-01T07:17:17;58.92;;;23.58;;
21848;SDS011;11089;49.852;19.700;2023-03-01T07:20:19;56.60;;;22.10;;
21848;SDS011;11089;49.852;19.700;2023-03-01T07:23:25;50.42;;;21.75;;
21848;SDS011;11089;49.852;19.700;2023-03-01T07:26:26;47.63;;;19.02;;
21848;SDS011;11089;49.852;19.700;2023-03-01T07:29:27;47.25;;;18.00;;
21848;SDS011;11089;49.852;19.700;2023-03-01T07:32:28;49.00;;;19.25;;
21848;SDS011;11089;49.852;19.700;2023-03-01T07:35:29;48.55;;;18.13;;
21848;SDS011;11089;49.852;19.700;2023-03-01T07:38:30;48.53;;;18.92;;
21848;SDS011;11089;49.852;19.700;2023-03-01T07:41:32;50.42;;;18.45;;
21848;SDS011;11089;49.852;19.700;2023-03-01T07:44:33;50.03;;;19.95;;
21848;SDS011;11089;49.852;19.700;2023-03-01T07:47:34;48.40;;;20.85;;
21848;SDS011;11089;49.852;19.700;2023-03-01T07:50:36;60.20;;;23.25;;
21848;SDS011;11089;49.852;19.700;2023-03-01T07:53:37;52.20;;;21.55;;
21848;SDS011;11089;49.852;19.700;2023-03-01T07:56:38;54.10;;;22.63;;
21848;SDS011;11089;49.852;19.700;2023-03-01T07:59:40;55.17;;;20.70;;
21848;SDS011;11089;49.852;19.700;2023-03-01T08:02:41;45.92;;;18.58;;
21848;SDS011;11089;49.852;19.700;2023-03-01T08:05:42;43.10;;;18.52;;
21848;SDS011;11089;49.852;19.700;2023-03-01T08:08:43;48.05;;;19.55;;
21848;SDS011;11089;49.852;19.700;2023-03-01T08:11:44;47.40;;;20.02;;
21848;SDS011;11089;49.852;19.700;2023-03-01T08:14:45;40.95;;;17.35;;
21848;SDS011;11089;49.852;19.700;2023-03-01T08:17:48;39.80;;;17.40;;
21848;SDS011;11089;49.852;19.700;2023-03-01T08:20:50;35.47;;;16.33;;
21848;SDS011;11089;49.852;19.700;2023-03-01T08:23:51;35.70;;;16.88;;
21848;SDS011;11089;49.852;19.700;2023-03-01T08:26:52;33.85;;;15.68;;
21848;SDS011;11089;49.852;19.700;2023-03-01T08:29:53;33.08;;;15.65;;
21848;SDS011;11089;49.852;19.700;2023-03-01T08:32:54;29.13;;;13.30;;
21848;SDS011;11089;49.852;19.700;2023-03-01T08:36:02;30.33;;;14.60;;
21848;SDS011;11089;49.852;19.700;2023-03-01T08:39:08;35.58;;;16.25;;
21848;SDS011;11089;49.852;19.700;2023-03-01T08:42:10;34.33;;;16.45;;
21848;SDS011;11089;49.852;19.700;2023-03-01T08:45:11;33.40;;;16.25;;
21848;SDS011;11089;49.852;19.700;2023-03-01T08:48:14;34.60;;;17.30;;
21848;SDS011;11089;49.852;19.700;2023-03-01T08:51:16;31.70;;;16.25;;
21848;SDS011;11089;49.852;19.700;2023-03-01T08:54:19;31.38;;;15.70;;
21848;SDS011;11089;49.852;19.700;2023-03-01T08:57:21;32.60;;;16.20;;
21848;SDS011;11089;49.852;19.700;2023-03-01T09:00:22;30.70;;;15.38;;
21848;SDS011;11089;49.852;19.700;2023-03-01T09:03:24;31.75;;;16.73;;
21848;SDS011;11089;49.852;19.700;2023-03-01T09:06:26;31.65;;;16.35;;
21848;SDS011;11089;49.852;19.700;2023-03-01T09:09:27;31.40;;;16.50;;
21848;SDS011;11089;49.852;19.700;2023-03-01T09:12:27;25.80;;;15.23;;
21848;SDS011;11089;49.852;19.700;2023-03-01T09:15:29;33.50;;;17.90;;
21848;SDS011;11089;49.852;19.700;2023-03-01T09:18:30;34.17;;;16.65;;
21848;SDS011;11089;49.852;19.700;2023-03-01T09:21:31;34.28;;;19.60;;
21848;SDS011;11089;49.852;19.700;2023-03-01T09:24:32;29.15;;;17.67;;
21848;SDS011;11089;49.852;19.700;2023-03-01T09:27:33;26.90;;;15.75;;
21848;SDS011;11089;49.852;19.700;2023-03-01T09:30:34;32.90;;;18.30;;
21848;SDS011;11089;49.852;19.700;2023-03-01T09:33:35;25.98;;;17.33;;
21848;SDS011;11089;49.852;19.700;2023-03-01T09:36:36;32.45;;;18.70;;
21848;SDS011;11089;49.852;19.700;2023-03-01T09:39:37;29.33;;;18.05;;
21848;SDS011;11089;49.852;19.700;2023-03-01T09:42:44;29.92;;;18.42;;
21848;SDS011;11089;49.852;19.700;2023-03-01T09:45:48;27.77;;;16.60;;
21848;SDS011;11089;49.852;19.700;2023-03-01T09:48:56;23.65;;;14.18;;
21848;SDS011;11089;49.852;19.700;2023-03-01T09:55:20;22.88;;;14.63;;
21848;SDS011;11089;49.852;19.700;2023-03-01T10:08:57;23.05;;;14.32;;
21848;SDS011;11089;49.852;19.700;2023-03-01T10:12:02;21.52;;;13.43;;
21848;SDS011;11089;49.852;19.700;2023-03-01T10:15:18;19.58;;;12.90;;
21848;SDS011;11089;49.852;19.700;2023-03-01T10:18:29;21.60;;;13.50;;
21848;SDS011;11089;49.852;19.700;2023-03-01T10:21:34;22.13;;;14.25;;
21848;SDS011;11089;49.852;19.700;2023-03-01T10:24:41;21.83;;;13.38;;
21848;SDS011;11089;49.852;19.700;2023-03-01T10:27:49;22.80;;;15.10;;
21848;SDS011;11089;49.852;19.700;2023-03-01T10:30:53;21.17;;;13.63;;
21848;SDS011;11089;49.852;19.700;2023-03-01T10:33:54;19.38;;;14.00;;
21848;SDS011;11089;49.852;19.700;2023-03-01T10:36:58;21.45;;;14.15;;
21848;SDS011;11089;49.852;19.700;2023-03-01T10:40:12;22.33;;;13.55;;
21848;SDS011;11089;49.852;19.700;2023-03-01T10:43:13;20.83;;;14.18;;
21848;SDS011;11089;49.852;19.700;2023-03-01T10:46:24;23.23;;;14.60;;
21848;SDS011;11089;49.852;19.700;2023-03-01T10:49:35;23.88;;;14.05;;
21848;SDS011;11089;49.852;19.700;2023-03-01T10:52:37;20.50;;;13.63;;
21848;SDS011;11089;49.852;19.700;2023-03-01T10:55:41;20.38;;;14.05;;
21848;SDS011;11089;49.852;19.700;2023-03-01T11:05:28;17.08;;;11.75;;
21848;SDS011;11089;49.852;19.700;2023-03-01T11:08:38;16.48;;;11.43;;
21848;SDS011;11089;49.852;19.700;2023-03-01T11:11:43;17.73;;;10.98;;
21848;SDS011;11089;49.852;19.700;2023-03-01T11:14:48;18.40;;;12.73;;
21848;SDS011;11089;49.852;19.700;2023-03-01T11:17:51;19.80;;;14.10;;
21848;SDS011;11089;49.852;19.700;2023-03-01T11:20:54;25.08;;;15.10;;
21848;SDS011;11089;49.852;19.700;2023-03-01T11:23:56;19.85;;;13.50;;
21848;SDS011;11089;49.852;19.700;2023-03-01T11:27:01;16.80;;;11.48;;
21848;SDS011;11089;49.852;19.700;2023-03-01T11:36:43;21.52;;;13.55;;
21848;SDS011;11089;49.852;19.700;2023-03-01T11:40:19;18.88;;;13.20;;
21848;SDS011;11089;49.852;19.700;2023-03-01T12:39:44;27.83;;;17.38;;
21848;SDS011;11089;49.852;19.700;2023-03-01T12:43:22;28.45;;;18.20;;
21848;SDS011;11089;49.852;19.700;2023-03-01T12:46:50;28.23;;;17.02;;
21848;SDS011;11089;49.852;19.700;2023-03-01T12:50:12;33.05;;;19.45;;
21848;SDS011;11089;49.852;19.700;2023-03-01T12:53:24;32.63;;;18.77;;
21848;SDS011;11089;49.852;19.700;2023-03-01T12:56:31;30.90;;;18.75;;
21848;SDS011;11089;49.852;19.700;2023-03-01T12:59:41;33.47;;;19.27;;
21848;SDS011;11089;49.852;19.700;2023-03-01T13:02:48;33.70;;;19.90;;
21848;SDS011;11089;49.852;19.700;2023-03-01T13:06:17;30.15;;;18.55;;
21848;SDS011;11089;49.852;19.700;2023-03-01T13:13:03;33.17;;;19.83;;
21848;SDS011;11089;49.852;19.700;2023-03-01T13:16:22;36.47;;;18.55;;
21848;SDS011;11089;49.852;19.700;2023-03-01T13:19:28;34.28;;;20.13;;
21848;SDS011;11089;49.852;19.700;2023-03-01T13:22:31;33.67;;;20.05;;
21848;SDS011;11089;49.852;19.700;2023-03-01T13:25:33;35.03;;;20.65;;
21848;SDS011;11089;49.852;19.700;2023-03-01T13:34:41;34.40;;;19.75;;
21848;SDS011;11089;49.852;19.700;2023-03-01T13:37:44;33.78;;;19.05;;
21848;SDS011;11089;49.852;19.700;2023-03-01T13:43:55;31.75;;;17.63;;
21848;SDS011;11089;49.852;19.700;2023-03-01T13:50:04;27.60;;;16.27;;
21848;SDS011;11089;49.852;19.700;2023-03-01T13:53:06;24.98;;;14.65;;
21848;SDS011;11089;49.852;19.700;2023-03-01T13:56:15;30.67;;;16.30;;
21848;SDS011;11089;49.852;19.700;2023-03-01T13:59:22;28.17;;;15.50;;
21848;SDS011;11089;49.852;19.700;2023-03-01T14:02:26;26.80;;;15.60;;
21848;SDS011;11089;49.852;19.700;2023-03-01T14:05:27;28.52;;;15.98;;
21848;SDS011;11089;49.852;19.700;2023-03-01T14:08:29;23.23;;;13.35;;
21848;SDS011;11089;49.852;19.700;2023-03-01T14:11:37;22.63;;;12.43;;
21848;SDS011;11089;49.852;19.700;2023-03-01T14:20:58;20.63;;;11.32;;
21848;SDS011;11089;49.852;19.700;2023-03-01T14:23:59;22.38;;;12.70;;
21848;SDS011;11089;49.852;19.700;2023-03-01T14:27:01;22.05;;;12.18;;
21848;SDS011;11089;49.852;19.700;2023-03-01T14:30:04;23.00;;;12.85;;
21848;SDS011;11089;49.852;19.700;2023-03-01T14:33:25;21.55;;;12.32;;
21848;SDS011;11089;49.852;19.700;2023-03-01T14:36:30;26.88;;;13.57;;
21848;SDS011;11089;49.852;19.700;2023-03-01T14:39:32;27.77;;;13.13;;
21848;SDS011;11089;49.852;19.700;2023-03-01T14:42:34;26.38;;;12.73;;
21848;SDS011;11089;49.852;19.700;2023-03-01T14:45:36;25.20;;;12.65;;
21848;SDS011;11089;49.852;19.700;2023-03-01T14:48:37;23.17;;;12.23;;
21848;SDS011;11089;49.852;19.700;2023-03-01T14:51:39;25.13;;;13.20;;
21848;SDS011;11089;49.852;19.700;2023-03-01T14:54:52;24.80;;;12.27;;
21848;SDS011;11089;49.852;19.700;2023-03-01T14:57:54;25.25;;;13.32;;
21848;SDS011;11089;49.852;19.700;2023-03-01T15:00:59;30.40;;;13.80;;
21848;SDS011;11089;49.852;19.700;2023-03-01T15:04:03;22.92;;;13.07;;
21848;SDS011;11089;49.852;19.700;2023-03-01T15:07:06;24.48;;;12.93;;
21848;SDS011;11089;49.852;19.700;2023-03-01T15:10:16;27.60;;;13.02;;
21848;SDS011;11089;49.852;19.700;2023-03-01T15:13:22;29.50;;;14.07;;
21848;SDS011;11089;49.852;19.700;2023-03-01T15:16:26;24.10;;;12.20;;
21848;SDS011;11089;49.852;19.700;2023-03-01T15:19:32;27.52;;;13.40;;
21848;SDS011;11089;49.852;19.700;2023-03-01T15:22:33;28.88;;;14.02;;
21848;SDS011;11089;49.852;19.700;2023-03-01T15:25:35;27.05;;;14.32;;
21848;SDS011;11089;49.852;19.700;2023-03-01T15:28:41;28.80;;;13.50;;
21848;SDS011;11089;49.852;19.700;2023-03-01T15:34:58;26.38;;;12.98;;
21848;SDS011;11089;49.852;19.700;2023-03-01T15:38:00;26.80;;;13.45;;
21848;SDS011;11089;49.852;19.700;2023-03-01T15:41:03;28.95;;;13.05;;
21848;SDS011;11089;49.852;19.700;2023-03-01T15:44:28;27.73;;;13.65;;
21848;SDS011;11089;49.852;19.700;2023-03-01T15:47:33;22.73;;;11.00;;
21848;SDS011;11089;49.852;19.700;2023-03-01T15:50:36;22.30;;;12.40;;
21848;SDS011;11089;49.852;19.700;2023-03-01T15:53:40;25.60;;;12.40;;
21848;SDS011;11089;49.852;19.700;2023-03-01T15:56:41;29.95;;;12.80;;
21848;SDS011;11089;49.852;19.700;2023-03-01T15:59:44;23.17;;;12.05;;
21848;SDS011;11089;49.852;19.700;2023-03-01T16:02:45;24.13;;;11.93;;
21848;SDS011;11089;49.852;19.700;2023-03-01T16:05:46;25.92;;;12.40;;
21848;SDS011;11089;49.852;19.700;2023-03-01T16:08:51;27.85;;;12.35;;
21848;SDS011;11089;49.852;19.700;2023-03-01T16:11:52;23.35;;;10.68;;
21848;SDS011;11089;49.852;19.700;2023-03-01T16:14:54;26.10;;;11.77;;
21848;SDS011;11089;49.852;19.700;2023-03-01T16:17:57;25.10;;;11.85;;
21848;SDS011;11089;49.852;19.700;2023-03-01T16:20:58;23.70;;;11.95;;
21848;SDS011;11089;49.852;19.700;2023-03-01T16:24:00;26.20;;;11.68;;
21848;SDS011;11089;49.852;19.700;2023-03-01T16:27:01;22.15;;;11.68;;
21848;SDS011;11089;49.852;19.700;2023-03-01T16:30:03;27.75;;;13.32;;
21848;SDS011;11089;49.852;19.700;2023-03-01T16:33:04;22.60;;;11.35;;
21848;SDS011;11089;49.852;19.700;2023-03-01T16:36:08;24.17;;;12.15;;
21848;SDS011;11089;49.852;19.700;2023-03-01T16:39:11;23.88;;;11.95;;
21848;SDS011;11089;49.852;19.700;2023-03-01T16:42:12;26.52;;;13.43;;
21848;SDS011;11089;49.852;19.700;2023-03-01T16:45:13;27.30;;;13.07;;
21848;SDS011;11089;49.852;19.700;2023-03-01T16:48:14;28.50;;;12.80;;
21848;SDS011;11089;49.852;19.700;2023-03-01T16:51:15;30.23;;;13.80;;
21848;SDS011;11089;49.852;19.700;2023-03-01T16:54:16;36.35;;;16.30;;
21848;SDS011;11089;49.852;19.700;2023-03-01T16:57:18;33.03;;;14.50;;
21848;SDS011;11089;49.852;19.700;2023-03-01T17:00:19;32.50;;;14.00;;
21848;SDS011;11089;49.852;19.700;2023-03-01T17:03:21;35.50;;;14.57;;
21848;SDS011;11089;49.852;19.700;2023-03-01T17:06:23;37.83;;;15.63;;
21848;SDS011;11089;49.852;19.700;2023-03-01T17:09:26;36.13;;;16.63;;
21848;SDS011;11089;49.852;19.700;2023-03-01T17:12:27;34.65;;;15.10;;
21848;SDS011;11089;49.852;19.700;2023-03-01T17:15:28;30.17;;;14.50;;
21848;SDS011;11089;49.852;19.700;2023-03-01T17:18:29;33.72;;;14.93;;
21848;SDS011;11089;49.852;19.700;2023-03-01T17:21:30;34.92;;;15.93;;
21848;SDS011;11089;49.852;19.700;2023-03-01T17:24:32;34.45;;;16.45;;
21848;SDS011;11089;49.852;19.700;2023-03-01T17:27:34;39.25;;;16.77;;
21848;SDS011;11089;49.852;19.700;2023-03-01T17:30:37;41.47;;;18.98;;
21848;SDS011;11089;49.852;19.700;2023-03-01T17:33:41;42.63;;;17.55;;
21848;SDS011;11089;49.852;19.700;2023-03-01T17:36:41;37.67;;;18.15;;
21848;SDS011;11089;49.852;19.700;2023-03-01T17:39:43;42.53;;;18.58;;
21848;SDS011;11089;49.852;19.700;2023-03-01T17:42:44;46.97;;;19.77;;
21848;SDS011;11089;49.852;19.700;2023-03-01T17:45:46;57.00;;;21.65;;
21848;SDS011;11089;49.852;19.700;2023-03-01T17:48:47;45.95;;;20.75;;
21848;SDS011;11089;49.852;19.700;2023-03-01T17:51:49;51.08;;;22.33;;
21848;SDS011;11089;49.852;19.700;2023-03-01T17:54:50;52.70;;;22.77;;
21848;SDS011;11089;49.852;19.700;2023-03-01T17:57:51;50.22;;;22.15;;
21848;SDS011;11089;49.852;19.700;2023-03-01T18:00:52;58.55;;;25.73;;
21848;SDS011;11089;49.852;19.700;2023-03-01T18:03:53;56.67;;;23.67;;
21848;SDS011;11089;49.852;19.700;2023-03-01T18:06:54;62.55;;;25.15;;
21848;SDS011;11089;49.852;19.700;2023-03-01T18:09:55;62.42;;;24.98;;
21848;SDS011;11089;49.852;19.700;2023-03-01T18:12:56;61.38;;;24.92;;
21848;SDS011;11089;49.852;19.700;2023-03-01T18:15:57;59.88;;;24.83;;
21848;SDS011;11089;49.852;19.700;2023-03-01T18:19:00;56.45;;;24.23;;
21848;SDS011;11089;49.852;19.700;2023-03-01T18:22:01;54.97;;;22.60;;
21848;SDS011;11089;49.852;19.700;2023-03-01T18:25:03;54.50;;;23.48;;
21848;SDS011;11089;49.852;19.700;2023-03-01T18:28:04;46.20;;;21.10;;
21848;SDS011;11089;49.852;19.700;2023-03-01T18:31:06;54.67;;;22.45;;
21848;SDS011;11089;49.852;19.700;2023-03-01T18:34:10;48.55;;;20.45;;
21848;SDS011;11089;49.852;19.700;2023-03-01T18:37:11;45.42;;;18.88;;
21848;SDS011;11089;49.852;19.700;2023-03-01T18:40:13;51.30;;;20.40;;
21848;SDS011;11089;49.852;19.700;2023-03-01T18:43:14;49.88;;;20.83;;
21848;SDS011;11089;49.852;19.700;2023-03-01T18:46:15;47.55;;;20.33;;
21848;SDS011;11089;49.852;19.700;2023-03-01T18:49:16;55.13;;;21.00;;
21848;SDS011;11089;49.852;19.700;2023-03-01T18:52:17;49.92;;;20.27;;
21848;SDS011;11089;49.852;19.700;2023-03-01T18:55:18;47.65;;;19.65;;
21848;SDS011;11089;49.852;19.700;2023-03-01T18:58:19;47.03;;;20.85;;
21848;SDS011;11089;49.852;19.700;2023-03-01T19:01:21;51.92;;;21.77;;
21848;SDS011;11089;49.852;19.700;2023-03-01T19:04:24;58.28;;;22.50;;
21848;SDS011;11089;49.852;19.700;2023-03-01T19:07:26;77.45;;;29.20;;
21848;SDS011;11089;49.852;19.700;2023-03-01T19:10:27;70.07;;;28.05;;
21848;SDS011;11089;49.852;19.700;2023-03-01T19:13:28;75.38;;;29.77;;
21848;SDS011;11089;49.852;19.700;2023-03-01T19:16:30;63.10;;;25.25;;
21848;SDS011;11089;49.852;19.700;2023-03-01T19:19:32;63.78;;;25.05;;
21848;SDS011;11089;49.852;19.700;2023-03-01T19:22:34;71.03;;;28.83;;
21848;SDS011;11089;49.852;19.700;2023-03-01T19:25:35;115.00;;;42.22;;
21848;SDS011;11089;49.852;19.700;2023-03-01T19:28:36;110.63;;;41.42;;
21848;SDS011;11089;49.852;19.700;2023-03-01T19:31:38;130.52;;;45.08;;
21848;SDS011;11089;49.852;19.700;2023-03-01T19:34:39;103.90;;;40.72;;